Kieimaru — JJ3880 — position and weather

sailwx.info

Track history (hours):
 
Tides and Currents Weather Stations Pressure Air Temp Water Temp Dewpoint Dewpoint Depression Visibility Wind Speed Wind Dir Waves Ship Positions

Kieimaru

Last reported at 2018-May-22 08:10 UTC. Time now 2018-May-22 11:48 UTC.
Position N 34°24' E 134°13'.

Length 100 m; draft 4.6 m.

Type: Cargo ship. MMSI: 431300131.

Date/timePositionNaut miles runAvg speedWind from/ knotsBaromVisibWave heightAir tempDewpointWater temp
2018-May-22 08:10N 34°24' E 134°13'912.6
2018-May-22 07:28N 34°26' E 134°23'612.7
2018-May-22 07:00N 34°29' E 134°29'712.4
2018-May-22 06:25N 34°34' E 134°36'612.6
2018-May-22 05:56N 34°37' E 134°43'612.7
2018-May-22 05:30N 34°40' E 134°48'  
2018-May-19 22:34N 34°42' E 134°50'0 2.4
2018-May-19 22:22N 34°42' E 134°50'3 7.6
2018-May-19 22:00N 34°39' E 134°50'5 9.4
2018-May-19 21:28N 34°37' E 134°56'4 9.2
2018-May-19 21:00N 34°37' E 135°01'4 8.3
2018-May-19 20:30N 34°35' E 135°05'510.6
2018-May-19 20:00N 34°30' E 135°04'510.4
2018-May-19 19:30N 34°24' E 135°02'510.2
2018-May-19 19:00N 34°20' E 135°00'5 9.6
2018-May-19 18:30N 34°15' E 134°60'510.3
2018-May-19 18:00N 34°10' E 134°59'510.2
2018-May-19 17:30N 34°05' E 134°58'510.2
2018-May-19 17:00N 33°60' E 134°56'17 9.8
2018-May-19 15:18N 33°46' E 134°45'9 0.4
2018-May-18 17:22N 33°53' E 134°52'713.2
2018-May-18 16:52N 33°59' E 134°54'512.6
2018-May-18 16:30N 34°04' E 134°55'612.3
2018-May-18 16:00N 34°10' E 134°56'611.8
2018-May-18 15:30N 34°15' E 134°58'510.3
2018-May-18 15:00N 34°20' E 134°59'510.3
2018-May-18 14:30N 34°25' E 135°00'510.9
2018-May-18 14:00N 34°31' E 135°01'5 9.3
2018-May-18 13:30N 34°35' E 135°03'4 7.0
2018-May-18 13:00N 34°37' E 134°60'5 9.4
2018-May-18 12:29N 34°37' E 134°54'510.2
2018-May-18 12:00N 34°40' E 134°49'3 5.2
2018-May-18 11:30N 34°43' E 134°50'0 0.0
2018-May-18 10:58N 34°43' E 134°50'0 0.0
2018-May-18 09:34N 34°43' E 134°50'0 0.0
2018-May-18 08:52N 34°43' E 134°50'0 0.0
2018-May-18 08:01N 34°43' E 134°50'0 0.1
2018-May-18 07:58N 34°43' E 134°50'0 0.0
2018-May-18 06:01N 34°43' E 134°50'0 0.0
2018-May-18 05:46N 34°43' E 134°50'0 0.0
2018-May-18 05:25N 34°43' E 134°50'0 0.0
2018-May-18 04:55N 34°43' E 134°50'0 0.0
2018-May-18 00:19N 34°42' E 134°50'0 0.0
2018-May-17 06:27N 34°43' E 134°50'2 5.1
2018-May-17 05:59N 34°40' E 134°48'711.9
2018-May-17 05:23N 34°37' E 134°41'512.0
2018-May-17 05:00N 34°34' E 134°37'611.7
2018-May-17 04:30N 34°31' E 134°30'611.7
2018-May-17 03:59N 34°27' E 134°25'811.4
2018-May-17 03:19N 34°24' E 134°16'4 0.1
2018-May-15 14:49N 34°25' E 134°12'412.0
2018-May-15 14:29N 34°25' E 134°16'612.6
2018-May-15 14:00N 34°26' E 134°23'612.6
2018-May-15 13:30N 34°30' E 134°30'613.0
2018-May-15 13:00N 34°34' E 134°36'713.1
2018-May-15 12:30N 34°37' E 134°43'612.9
2018-May-15 12:00N 34°41' E 134°49'1 2.2
2018-May-15 11:19N 34°43' E 134°50'0 0.0
2018-May-15 10:58N 34°43' E 134°50'0 0.0
2018-May-15 10:19N 34°43' E 134°50'0 0.0
2018-May-15 09:58N 34°43' E 134°50'0 0.0
2018-May-15 08:37N 34°43' E 134°50'0 0.0
2018-May-15 06:43N 34°43' E 134°50'0 0.0
2018-May-15 06:25N 34°43' E 134°50'0 0.0
2018-May-15 02:58N 34°43' E 134°50'0 0.1
2018-May-15 02:13N 34°43' E 134°50'0 0.1
2018-May-15 01:46N 34°43' E 134°50'0 0.0
2018-May-15 01:28N 34°43' E 134°50'0 0.0
2018-May-15 00:52N 34°43' E 134°50'0 0.0
2018-May-15 00:22N 34°43' E 134°50'0 0.1
2018-May-14 23:58N 34°43' E 134°50'0 0.1
2018-May-14 23:25N 34°43' E 134°50'0 0.0
2018-May-14 22:49N 34°43' E 134°50'0 0.1
2018-May-14 22:30N 34°43' E 134°50'3 6.4
2018-May-14 22:00N 34°39' E 134°50'612.5
2018-May-14 21:30N 34°37' E 134°57'612.4
2018-May-14 21:00N 34°36' E 135°04'510.9
2018-May-14 20:30N 34°30' E 135°04'611.7
2018-May-14 20:00N 34°25' E 135°02'611.4
2018-May-14 19:30N 34°19' E 135°00'510.2
2018-May-14 19:00N 34°14' E 134°59'510.0
2018-May-14 18:30N 34°09' E 134°58'611.3
2018-May-14 18:00N 34°04' E 134°57'511.0
2018-May-14 17:30N 33°59' E 134°55'510.9
2018-May-14 17:00N 33°53' E 134°53'510.6
2018-May-14 16:30N 33°49' E 134°50'510.6
2018-May-14 16:00N 33°45' E 134°46'610.9
2018-May-14 15:28N 33°40' E 134°41'511.1
2018-May-14 15:00N 33°37' E 134°37'610.9
2018-May-14 14:29N 33°32' E 134°32'611.1
2018-May-14 13:59N 33°28' E 134°28'20 1.2
2018-May-13 20:27N 33°43' E 134°44'712.8
2018-May-13 19:54N 33°49' E 134°49'611.9
2018-May-13 19:23N 33°55' E 134°52'412.0
2018-May-13 19:00N 33°59' E 134°53'612.4
2018-May-13 18:30N 34°05' E 134°55'713.1
2018-May-13 18:00N 34°11' E 134°57'713.5
2018-May-13 17:31N 34°18' E 134°58'713.4
2018-May-13 17:01N 34°25' E 135°00'713.4
2018-May-13 16:31N 34°31' E 135°03'713.1
2018-May-13 16:01N 34°37' E 135°01'714.2
2018-May-13 15:30N 34°38' E 134°52'5 9.7
2018-May-13 15:00N 34°43' E 134°50'0 0.1
2018-May-13 14:13N 34°43' E 134°50'0 0.0
2018-May-13 13:58N 34°43' E 134°50'0 0.0
2018-May-13 13:25N 34°43' E 134°50'0 0.0
2018-May-13 12:58N 34°43' E 134°50'0 0.0
2018-May-13 12:28N 34°43' E 134°50'0 0.0
2018-May-13 11:52N 34°43' E 134°50'0 0.0
2018-May-13 11:28N 34°43' E 134°50'0 0.0
2018-May-13 10:46N 34°43' E 134°50'0 0.0
2018-May-13 10:16N 34°43' E 134°50'0 0.0
2018-May-13 09:58N 34°43' E 134°50'0 0.0
2018-May-13 09:28N 34°43' E 134°50'0 0.0
2018-May-13 05:42N 34°43' E 134°50'0 1.4
2018-May-13 05:30N 34°42' E 134°50'0 0.3
2018-May-13 05:00N 34°42' E 134°50'0 0.4
2018-May-13 04:30N 34°42' E 134°50'4 7.3
2018-May-13 04:00N 34°42' E 134°46'1 1.7
2018-May-13 03:29N 34°42' E 134°45'0 0.0
2018-May-13 02:56N 34°42' E 134°45'0 0.0
2018-May-13 02:23N 34°42' E 134°45'0 0.0
2018-May-13 00:59N 34°42' E 134°45'0 0.1
2018-May-13 00:29N 34°42' E 134°45'0 0.0
2018-May-12 23:59N 34°42' E 134°45'0 0.0
2018-May-12 23:29N 34°42' E 134°45'0 0.1
2018-May-12 22:59N 34°42' E 134°44'0 0.0
2018-May-12 22:20N 34°42' E 134°44'0 0.0
2018-May-12 21:59N 34°42' E 134°44'0 0.0
2018-May-12 21:29N 34°42' E 134°44'0 0.0
2018-May-12 20:59N 34°42' E 134°44'0 0.0
2018-May-12 20:29N 34°42' E 134°44'0 0.0
2018-May-12 19:59N 34°42' E 134°44'0 0.1
2018-May-12 19:28N 34°42' E 134°45'2 4.6
2018-May-12 19:01N 34°41' E 134°46'611.3
2018-May-12 18:30N 34°38' E 134°52'511.0
2018-May-12 18:01N 34°38' E 134°59'5 9.1
2018-May-12 17:30N 34°36' E 135°04'4 8.3
2018-May-12 17:01N 34°32' E 135°04'510.9
2018-May-12 16:30N 34°26' E 135°03'510.5
2018-May-12 16:00N 34°21' E 135°01'510.2
2018-May-12 15:30N 34°16' E 134°59'510.1
2018-May-12 15:00N 34°11' E 134°59'510.8
2018-May-12 14:30N 34°06' E 134°58'611.2
2018-May-12 14:00N 34°01' E 134°56'611.2
2018-May-12 13:29N 33°55' E 134°54'610.9
2018-May-12 12:55N 33°50' E 134°50'711.1
2018-May-12 12:19N 33°45' E 134°45'  
Track history (hours):
 
Tides and Currents Weather Stations Pressure Air Temp Water Temp Dewpoint Dewpoint Depression Visibility Wind Speed Wind Dir Waves Ship Positions

Kieimaru

Last reported at 2018-May-22 08:10 UTC. Time now 2018-May-22 11:48 UTC.
Position N 34°24' E 134°13'.

Length 100 m; draft 4.6 m.

Type: Cargo ship. MMSI: 431300131.

Date/timePositionNaut miles runAvg speedWind from/ knotsBaromVisibWave heightAir tempDewpointWater temp
2018-May-22 08:10N 34°24' E 134°13'912.6
2018-May-22 07:28N 34°26' E 134°23'612.7
2018-May-22 07:00N 34°29' E 134°29'712.4
2018-May-22 06:25N 34°34' E 134°36'612.6
2018-May-22 05:56N 34°37' E 134°43'612.7
2018-May-22 05:30N 34°40' E 134°48'  
2018-May-19 22:34N 34°42' E 134°50'0 2.4
2018-May-19 22:22N 34°42' E 134°50'3 7.6
2018-May-19 22:00N 34°39' E 134°50'5 9.4
2018-May-19 21:28N 34°37' E 134°56'4 9.2
2018-May-19 21:00N 34°37' E 135°01'4 8.3
2018-May-19 20:30N 34°35' E 135°05'510.6
2018-May-19 20:00N 34°30' E 135°04'510.4
2018-May-19 19:30N 34°24' E 135°02'510.2
2018-May-19 19:00N 34°20' E 135°00'5 9.6
2018-May-19 18:30N 34°15' E 134°60'510.3
2018-May-19 18:00N 34°10' E 134°59'510.2
2018-May-19 17:30N 34°05' E 134°58'510.2
2018-May-19 17:00N 33°60' E 134°56'17 9.8
2018-May-19 15:18N 33°46' E 134°45'9 0.4
2018-May-18 17:22N 33°53' E 134°52'713.2
2018-May-18 16:52N 33°59' E 134°54'512.6
2018-May-18 16:30N 34°04' E 134°55'612.3
2018-May-18 16:00N 34°10' E 134°56'611.8
2018-May-18 15:30N 34°15' E 134°58'510.3
2018-May-18 15:00N 34°20' E 134°59'510.3
2018-May-18 14:30N 34°25' E 135°00'510.9
2018-May-18 14:00N 34°31' E 135°01'5 9.3
2018-May-18 13:30N 34°35' E 135°03'4 7.0
2018-May-18 13:00N 34°37' E 134°60'5 9.4
2018-May-18 12:29N 34°37' E 134°54'510.2
2018-May-18 12:00N 34°40' E 134°49'3 5.2
2018-May-18 11:30N 34°43' E 134°50'0 0.0
2018-May-18 10:58N 34°43' E 134°50'0 0.0
2018-May-18 09:34N 34°43' E 134°50'0 0.0
2018-May-18 08:52N 34°43' E 134°50'0 0.0
2018-May-18 08:01N 34°43' E 134°50'0 0.1
2018-May-18 07:58N 34°43' E 134°50'0 0.0
2018-May-18 06:01N 34°43' E 134°50'0 0.0
2018-May-18 05:46N 34°43' E 134°50'0 0.0
2018-May-18 05:25N 34°43' E 134°50'0 0.0
2018-May-18 04:55N 34°43' E 134°50'0 0.0
2018-May-18 00:19N 34°42' E 134°50'0 0.0
2018-May-17 06:27N 34°43' E 134°50'2 5.1
2018-May-17 05:59N 34°40' E 134°48'711.9
2018-May-17 05:23N 34°37' E 134°41'512.0
2018-May-17 05:00N 34°34' E 134°37'611.7
2018-May-17 04:30N 34°31' E 134°30'611.7
2018-May-17 03:59N 34°27' E 134°25'811.4
2018-May-17 03:19N 34°24' E 134°16'4 0.1
2018-May-15 14:49N 34°25' E 134°12'412.0
2018-May-15 14:29N 34°25' E 134°16'612.6
2018-May-15 14:00N 34°26' E 134°23'612.6
2018-May-15 13:30N 34°30' E 134°30'613.0
2018-May-15 13:00N 34°34' E 134°36'713.1
2018-May-15 12:30N 34°37' E 134°43'612.9
2018-May-15 12:00N 34°41' E 134°49'1 2.2
2018-May-15 11:19N 34°43' E 134°50'0 0.0
2018-May-15 10:58N 34°43' E 134°50'0 0.0
2018-May-15 10:19N 34°43' E 134°50'0 0.0
2018-May-15 09:58N 34°43' E 134°50'0 0.0
2018-May-15 08:37N 34°43' E 134°50'0 0.0
2018-May-15 06:43N 34°43' E 134°50'0 0.0
2018-May-15 06:25N 34°43' E 134°50'0 0.0
2018-May-15 02:58N 34°43' E 134°50'0 0.1
2018-May-15 02:13N 34°43' E 134°50'0 0.1
2018-May-15 01:46N 34°43' E 134°50'0 0.0
2018-May-15 01:28N 34°43' E 134°50'0 0.0
2018-May-15 00:52N 34°43' E 134°50'0 0.0
2018-May-15 00:22N 34°43' E 134°50'0 0.1
2018-May-14 23:58N 34°43' E 134°50'0 0.1
2018-May-14 23:25N 34°43' E 134°50'0 0.0
2018-May-14 22:49N 34°43' E 134°50'0 0.1
2018-May-14 22:30N 34°43' E 134°50'3 6.4
2018-May-14 22:00N 34°39' E 134°50'612.5
2018-May-14 21:30N 34°37' E 134°57'612.4
2018-May-14 21:00N 34°36' E 135°04'510.9
2018-May-14 20:30N 34°30' E 135°04'611.7
2018-May-14 20:00N 34°25' E 135°02'611.4
2018-May-14 19:30N 34°19' E 135°00'510.2
2018-May-14 19:00N 34°14' E 134°59'510.0
2018-May-14 18:30N 34°09' E 134°58'611.3
2018-May-14 18:00N 34°04' E 134°57'511.0
2018-May-14 17:30N 33°59' E 134°55'510.9
2018-May-14 17:00N 33°53' E 134°53'510.6
2018-May-14 16:30N 33°49' E 134°50'510.6
2018-May-14 16:00N 33°45' E 134°46'610.9
2018-May-14 15:28N 33°40' E 134°41'511.1
2018-May-14 15:00N 33°37' E 134°37'610.9
2018-May-14 14:29N 33°32' E 134°32'611.1
2018-May-14 13:59N 33°28' E 134°28'20 1.2
2018-May-13 20:27N 33°43' E 134°44'712.8
2018-May-13 19:54N 33°49' E 134°49'611.9
2018-May-13 19:23N 33°55' E 134°52'412.0
2018-May-13 19:00N 33°59' E 134°53'612.4
2018-May-13 18:30N 34°05' E 134°55'713.1
2018-May-13 18:00N 34°11' E 134°57'713.5
2018-May-13 17:31N 34°18' E 134°58'713.4
2018-May-13 17:01N 34°25' E 135°00'713.4
2018-May-13 16:31N 34°31' E 135°03'713.1
2018-May-13 16:01N 34°37' E 135°01'714.2
2018-May-13 15:30N 34°38' E 134°52'5 9.7
2018-May-13 15:00N 34°43' E 134°50'0 0.1
2018-May-13 14:13N 34°43' E 134°50'0 0.0
2018-May-13 13:58N 34°43' E 134°50'0 0.0
2018-May-13 13:25N 34°43' E 134°50'0 0.0
2018-May-13 12:58N 34°43' E 134°50'0 0.0
2018-May-13 12:28N 34°43' E 134°50'0 0.0
2018-May-13 11:52N 34°43' E 134°50'0 0.0
2018-May-13 11:28N 34°43' E 134°50'0 0.0
2018-May-13 10:46N 34°43' E 134°50'0 0.0
2018-May-13 10:16N 34°43' E 134°50'0 0.0
2018-May-13 09:58N 34°43' E 134°50'0 0.0
2018-May-13 09:28N 34°43' E 134°50'0 0.0
2018-May-13 05:42N 34°43' E 134°50'0 1.4
2018-May-13 05:30N 34°42' E 134°50'0 0.3
2018-May-13 05:00N 34°42' E 134°50'0 0.4
2018-May-13 04:30N 34°42' E 134°50'4 7.3
2018-May-13 04:00N 34°42' E 134°46'1 1.7
2018-May-13 03:29N 34°42' E 134°45'0 0.0
2018-May-13 02:56N 34°42' E 134°45'0 0.0
2018-May-13 02:23N 34°42' E 134°45'0 0.0
2018-May-13 00:59N 34°42' E 134°45'0 0.1
2018-May-13 00:29N 34°42' E 134°45'0 0.0
2018-May-12 23:59N 34°42' E 134°45'0 0.0
2018-May-12 23:29N 34°42' E 134°45'0 0.1
2018-May-12 22:59N 34°42' E 134°44'0 0.0
2018-May-12 22:20N 34°42' E 134°44'0 0.0
2018-May-12 21:59N 34°42' E 134°44'0 0.0
2018-May-12 21:29N 34°42' E 134°44'0 0.0
2018-May-12 20:59N 34°42' E 134°44'0 0.0
2018-May-12 20:29N 34°42' E 134°44'0 0.0
2018-May-12 19:59N 34°42' E 134°44'0 0.1
2018-May-12 19:28N 34°42' E 134°45'2 4.6
2018-May-12 19:01N 34°41' E 134°46'611.3
2018-May-12 18:30N 34°38' E 134°52'511.0
2018-May-12 18:01N 34°38' E 134°59'5 9.1
2018-May-12 17:30N 34°36' E 135°04'4 8.3
2018-May-12 17:01N 34°32' E 135°04'510.9
2018-May-12 16:30N 34°26' E 135°03'510.5
2018-May-12 16:00N 34°21' E 135°01'510.2
2018-May-12 15:30N 34°16' E 134°59'510.1
2018-May-12 15:00N 34°11' E 134°59'510.8
2018-May-12 14:30N 34°06' E 134°58'611.2
2018-May-12 14:00N 34°01' E 134°56'611.2
2018-May-12 13:29N 33°55' E 134°54'610.9
2018-May-12 12:55N 33°50' E 134°50'711.1
2018-May-12 12:19N 33°45' E 134°45'  

Dump ship's entire track history